Pagrindinis puslapis
METAR-TAF:

METAR-TAF

Oro uostai :

Dar es Salamas, Tanzanija

platuma: 06-52S, ilguma: 039-12E, Aukštis: 55 m

Dabartinis oras

Ataskaita buvo paskelbta 25 minutes, ne 05:00 UTC
Vėjas 3 kt iš Pietų
Temperatūra 25°C
Drėgmė 83%
Slėgis 1017 hPa
Matomumas: 8000 m
Mažai debesys ne aukštis 1200 ft
Rūkas kaimynystėje

METAR: HTDA 180500Z 19003KT 8000 VCFG FEW012 25/22 Q1017 NOSIG

Laikas: 08:25 (05:25 UTC)

Prognozė

Ataskaita buvo paskelbta 6 valandos ir 25 minutes, ne 23:00 UTC
Prognozė galioja nuo 18 metu 00 UTC su 19 metu 06 UTC
Vėjas kt iš Šiaurės
Matomumas 10 km arba daugiau
Tapsmas
nuo 18 metu 04 UTC su 18 metu 07 UTC
Vėjas 10 kt iš Pietryčių
Su prošvaistėmis ne aukštis 2000 ft

TAF: HTDA 172300Z 1800/1906 00000KT 9999 SCT16 BECMG 1804/1807 13010KT BKN020

Orai ataskaitas ir orų prognozės (METAR, TAF).

turimą stotys yra geltonos ir raudonos taškus žemėlapyje.

Perkelti pele per norėdami pamatyti stoties vardą.

Tada spustelėkite, norėdami matyti oro stebėjimo ir prognozės.

Norėdami pakeisti žemėlapį: spustelėkite ant žalios mygtukų su juodo kryžiaus žemyn,; žalią mygtuką su brūkšneliu, jei norite nutolinti; arba žalių rodyklių gretimoms žemėlapius.


METAR-TAF: